sensor_id;sensor_type;location;lat;lon;timestamp;pressure;altitude;pressure_sealevel;temperature;humidity
32747;BME280;19118;50.860;13.662;2024-01-07T00:04:33;96547.41;;;-0.69;100.00
32747;BME280;19118;50.860;13.662;2024-01-07T00:09:35;96547.47;;;-0.89;100.00
32747;BME280;19118;50.860;13.662;2024-01-07T00:14:35;96544.97;;;-0.80;100.00
32747;BME280;19118;50.860;13.662;2024-01-07T00:19:36;96548.28;;;-0.88;100.00
32747;BME280;19118;50.860;13.662;2024-01-07T00:24:37;96550.06;;;-0.98;100.00
32747;BME280;19118;50.860;13.662;2024-01-07T00:29:38;96570.94;;;-0.80;100.00
32747;BME280;19118;50.860;13.662;2024-01-07T00:34:38;96567.63;;;-1.40;100.00
32747;BME280;19118;50.860;13.662;2024-01-07T00:39:38;96565.63;;;-0.89;100.00
32747;BME280;19118;50.860;13.662;2024-01-07T00:44:39;96567.09;;;-1.25;100.00
32747;BME280;19118;50.860;13.662;2024-01-07T00:49:39;96569.25;;;-1.49;100.00
32747;BME280;19118;50.860;13.662;2024-01-07T00:54:40;96568.59;;;-1.41;100.00
32747;BME280;19118;50.860;13.662;2024-01-07T00:59:41;96564.75;;;-1.37;100.00
32747;BME280;19118;50.860;13.662;2024-01-07T01:04:41;96573.41;;;-1.08;100.00
32747;BME280;19118;50.860;13.662;2024-01-07T01:09:41;96581.84;;;-1.15;100.00
32747;BME280;19118;50.860;13.662;2024-01-07T01:14:41;96588.28;;;-1.10;100.00
32747;BME280;19118;50.860;13.662;2024-01-07T01:19:42;96596.31;;;-1.32;100.00
32747;BME280;19118;50.860;13.662;2024-01-07T01:24:42;96604.94;;;-1.12;100.00
32747;BME280;19118;50.860;13.662;2024-01-07T01:29:45;96602.63;;;-1.06;100.00
32747;BME280;19118;50.860;13.662;2024-01-07T01:34:46;96605.78;;;-1.12;100.00
32747;BME280;19118;50.860;13.662;2024-01-07T01:39:46;96612.16;;;-1.35;100.00
32747;BME280;19118;50.860;13.662;2024-01-07T01:44:47;96617.22;;;-1.24;100.00
32747;BME280;19118;50.860;13.662;2024-01-07T01:49:48;96614.56;;;-1.43;100.00
32747;BME280;19118;50.860;13.662;2024-01-07T01:54:48;96617.63;;;-1.19;100.00
32747;BME280;19118;50.860;13.662;2024-01-07T01:59:49;96621.00;;;-1.38;100.00
32747;BME280;19118;50.860;13.662;2024-01-07T02:04:49;96630.31;;;-1.35;100.00
32747;BME280;19118;50.860;13.662;2024-01-07T02:09:50;96638.66;;;-1.22;100.00
32747;BME280;19118;50.860;13.662;2024-01-07T02:14:50;96640.22;;;-1.40;100.00
32747;BME280;19118;50.860;13.662;2024-01-07T02:19:50;96634.50;;;-1.44;100.00
32747;BME280;19118;50.860;13.662;2024-01-07T02:24:51;96639.09;;;-1.57;100.00
32747;BME280;19118;50.860;13.662;2024-01-07T02:29:51;96643.56;;;-1.59;100.00
32747;BME280;19118;50.860;13.662;2024-01-07T02:34:52;96645.28;;;-1.39;100.00
32747;BME280;19118;50.860;13.662;2024-01-07T02:39:52;96641.03;;;-1.50;100.00
32747;BME280;19118;50.860;13.662;2024-01-07T02:44:52;96651.34;;;-1.69;100.00
32747;BME280;19118;50.860;13.662;2024-01-07T02:49:52;96654.28;;;-1.43;100.00
32747;BME280;19118;50.860;13.662;2024-01-07T02:54:53;96659.81;;;-1.67;100.00
32747;BME280;19118;50.860;13.662;2024-01-07T02:59:53;96670.63;;;-1.83;100.00
32747;BME280;19118;50.860;13.662;2024-01-07T03:04:53;96662.41;;;-1.67;100.00
32747;BME280;19118;50.860;13.662;2024-01-07T03:09:54;96665.00;;;-1.67;100.00
32747;BME280;19118;50.860;13.662;2024-01-07T03:14:54;96667.94;;;-1.71;100.00
32747;BME280;19118;50.860;13.662;2024-01-07T03:19:54;96665.66;;;-1.95;100.00
32747;BME280;19118;50.860;13.662;2024-01-07T03:24:55;96663.25;;;-1.57;100.00
32747;BME280;19118;50.860;13.662;2024-01-07T03:29:55;96666.69;;;-2.08;100.00
32747;BME280;19118;50.860;13.662;2024-01-07T03:34:55;96677.75;;;-1.75;100.00
32747;BME280;19118;50.860;13.662;2024-01-07T03:39:56;96687.53;;;-2.09;100.00
32747;BME280;19118;50.860;13.662;2024-01-07T03:44:56;96681.88;;;-1.72;100.00
32747;BME280;19118;50.860;13.662;2024-01-07T03:49:57;96690.38;;;-2.12;100.00
32747;BME280;19118;50.860;13.662;2024-01-07T03:54:57;96702.25;;;-1.89;100.00
32747;BME280;19118;50.860;13.662;2024-01-07T03:59:57;96696.94;;;-1.87;100.00
32747;BME280;19118;50.860;13.662;2024-01-07T04:04:57;96701.75;;;-2.03;100.00
32747;BME280;19118;50.860;13.662;2024-01-07T04:09:58;96700.63;;;-2.11;100.00
32747;BME280;19118;50.860;13.662;2024-01-07T04:14:58;96709.19;;;-2.31;100.00
32747;BME280;19118;50.860;13.662;2024-01-07T04:19:58;96706.28;;;-2.38;100.00
32747;BME280;19118;50.860;13.662;2024-01-07T04:24:59;96712.41;;;-1.97;100.00
32747;BME280;19118;50.860;13.662;2024-01-07T04:29:59;96714.19;;;-1.97;100.00
32747;BME280;19118;50.860;13.662;2024-01-07T04:34:59;96718.34;;;-1.85;100.00
32747;BME280;19118;50.860;13.662;2024-01-07T04:40:00;96725.81;;;-2.13;100.00
32747;BME280;19118;50.860;13.662;2024-01-07T04:45:00;96734.16;;;-1.88;100.00
32747;BME280;19118;50.860;13.662;2024-01-07T04:50:02;96731.56;;;-1.88;100.00
32747;BME280;19118;50.860;13.662;2024-01-07T04:55:02;96738.53;;;-1.89;100.00
32747;BME280;19118;50.860;13.662;2024-01-07T05:00:03;96746.81;;;-2.27;100.00
32747;BME280;19118;50.860;13.662;2024-01-07T05:05:04;96744.66;;;-2.11;100.00
32747;BME280;19118;50.860;13.662;2024-01-07T05:10:05;96745.81;;;-2.03;100.00
32747;BME280;19118;50.860;13.662;2024-01-07T05:15:05;96757.81;;;-2.02;100.00
32747;BME280;19118;50.860;13.662;2024-01-07T05:20:07;96757.72;;;-2.12;100.00
32747;BME280;19118;50.860;13.662;2024-01-07T05:25:07;96769.47;;;-2.40;100.00
32747;BME280;19118;50.860;13.662;2024-01-07T05:30:08;96772.69;;;-2.48;100.00
32747;BME280;19118;50.860;13.662;2024-01-07T05:35:08;96774.00;;;-2.21;100.00
32747;BME280;19118;50.860;13.662;2024-01-07T05:40:09;96783.75;;;-2.46;100.00
32747;BME280;19118;50.860;13.662;2024-01-07T05:45:10;96781.94;;;-2.02;100.00
32747;BME280;19118;50.860;13.662;2024-01-07T05:50:10;96778.59;;;-2.57;100.00
32747;BME280;19118;50.860;13.662;2024-01-07T05:55:11;96790.03;;;-2.27;100.00
32747;BME280;19118;50.860;13.662;2024-01-07T06:00:12;96802.06;;;-2.26;100.00
32747;BME280;19118;50.860;13.662;2024-01-07T06:05:15;96800.91;;;-2.01;100.00
32747;BME280;19118;50.860;13.662;2024-01-07T06:10:15;96811.59;;;-2.38;100.00
32747;BME280;19118;50.860;13.662;2024-01-07T06:15:16;96813.41;;;-2.18;100.00
32747;BME280;19118;50.860;13.662;2024-01-07T06:20:16;96822.66;;;-2.25;100.00
32747;BME280;19118;50.860;13.662;2024-01-07T06:25:16;96833.00;;;-2.25;100.00
32747;BME280;19118;50.860;13.662;2024-01-07T06:30:17;96842.28;;;-2.22;100.00
32747;BME280;19118;50.860;13.662;2024-01-07T06:35:19;96843.97;;;-2.32;100.00
32747;BME280;19118;50.860;13.662;2024-01-07T06:40:19;96851.16;;;-2.36;100.00
32747;BME280;19118;50.860;13.662;2024-01-07T06:45:20;96853.66;;;-2.46;100.00
32747;BME280;19118;50.860;13.662;2024-01-07T06:50:20;96865.63;;;-2.45;100.00
32747;BME280;19118;50.860;13.662;2024-01-07T06:55:21;96864.81;;;-2.45;100.00
32747;BME280;19118;50.860;13.662;2024-01-07T07:00:22;96874.81;;;-2.41;100.00
32747;BME280;19118;50.860;13.662;2024-01-07T07:05:22;96878.03;;;-2.59;100.00
32747;BME280;19118;50.860;13.662;2024-01-07T07:10:23;96880.00;;;-2.52;100.00
32747;BME280;19118;50.860;13.662;2024-01-07T07:15:23;96890.34;;;-2.41;100.00
32747;BME280;19118;50.860;13.662;2024-01-07T07:20:26;96893.88;;;-2.42;100.00
32747;BME280;19118;50.860;13.662;2024-01-07T07:25:27;96889.75;;;-2.33;100.00
32747;BME280;19118;50.860;13.662;2024-01-07T07:30:27;96889.09;;;-2.91;100.00
32747;BME280;19118;50.860;13.662;2024-01-07T07:35:27;96897.31;;;-2.64;100.00
32747;BME280;19118;50.860;13.662;2024-01-07T07:40:28;96914.00;;;-2.56;100.00
32747;BME280;19118;50.860;13.662;2024-01-07T07:45:28;96918.63;;;-2.60;100.00
32747;BME280;19118;50.860;13.662;2024-01-07T07:50:29;96929.78;;;-2.82;100.00
32747;BME280;19118;50.860;13.662;2024-01-07T07:55:29;96938.25;;;-2.80;100.00
32747;BME280;19118;50.860;13.662;2024-01-07T08:00:30;96936.25;;;-2.65;100.00
32747;BME280;19118;50.860;13.662;2024-01-07T08:05:31;96947.41;;;-2.65;100.00
32747;BME280;19118;50.860;13.662;2024-01-07T08:10:31;96935.19;;;-2.74;100.00
32747;BME280;19118;50.860;13.662;2024-01-07T08:15:32;96954.69;;;-2.92;100.00
32747;BME280;19118;50.860;13.662;2024-01-07T08:20:32;96955.41;;;-2.79;100.00
32747;BME280;19118;50.860;13.662;2024-01-07T08:25:33;96963.19;;;-2.45;100.00
32747;BME280;19118;50.860;13.662;2024-01-07T08:30:33;96962.94;;;-2.65;100.00
32747;BME280;19118;50.860;13.662;2024-01-07T08:35:33;96966.22;;;-2.63;100.00
32747;BME280;19118;50.860;13.662;2024-01-07T08:40:34;96962.81;;;-2.74;100.00
32747;BME280;19118;50.860;13.662;2024-01-07T08:45:34;96974.00;;;-2.51;100.00
32747;BME280;19118;50.860;13.662;2024-01-07T08:50:34;96974.63;;;-2.25;100.00
32747;BME280;19118;50.860;13.662;2024-01-07T08:55:35;96982.00;;;-2.66;100.00
32747;BME280;19118;50.860;13.662;2024-01-07T09:00:35;96987.19;;;-2.43;100.00
32747;BME280;19118;50.860;13.662;2024-01-07T09:05:36;96992.38;;;-2.43;100.00
32747;BME280;19118;50.860;13.662;2024-01-07T09:10:37;96991.78;;;-2.47;100.00
32747;BME280;19118;50.860;13.662;2024-01-07T09:15:37;97001.53;;;-2.39;100.00
32747;BME280;19118;50.860;13.662;2024-01-07T09:20:37;97010.97;;;-2.60;100.00
32747;BME280;19118;50.860;13.662;2024-01-07T09:25:38;97009.53;;;-2.53;100.00
32747;BME280;19118;50.860;13.662;2024-01-07T09:30:38;97010.72;;;-2.57;100.00
32747;BME280;19118;50.860;13.662;2024-01-07T09:35:38;97019.53;;;-2.71;100.00
32747;BME280;19118;50.860;13.662;2024-01-07T09:40:39;97009.28;;;-2.61;100.00
32747;BME280;19118;50.860;13.662;2024-01-07T09:45:42;97007.06;;;-2.66;100.00
32747;BME280;19118;50.860;13.662;2024-01-07T09:50:45;97017.56;;;-2.12;100.00
32747;BME280;19118;50.860;13.662;2024-01-07T09:56:06;97019.91;;;-2.09;100.00
32747;BME280;19118;50.860;13.662;2024-01-07T10:01:08;97012.38;;;-2.56;100.00
32747;BME280;19118;50.860;13.662;2024-01-07T10:06:10;97022.06;;;-2.36;100.00
32747;BME280;19118;50.860;13.662;2024-01-07T10:11:13;97028.16;;;-2.37;100.00
32747;BME280;19118;50.860;13.662;2024-01-07T10:16:14;97031.19;;;-2.54;100.00
32747;BME280;19118;50.860;13.662;2024-01-07T10:21:14;97028.63;;;-2.32;100.00
32747;BME280;19118;50.860;13.662;2024-01-07T10:26:15;97029.81;;;-2.25;100.00
32747;BME280;19118;50.860;13.662;2024-01-07T10:31:15;97034.38;;;-2.40;100.00
32747;BME280;19118;50.860;13.662;2024-01-07T10:36:16;97030.00;;;-2.61;100.00
32747;BME280;19118;50.860;13.662;2024-01-07T10:41:20;97022.25;;;-2.50;100.00
32747;BME280;19118;50.860;13.662;2024-01-07T10:46:21;97030.13;;;-2.52;100.00
32747;BME280;19118;50.860;13.662;2024-01-07T10:51:22;97040.28;;;-2.38;100.00
32747;BME280;19118;50.860;13.662;2024-01-07T10:56:25;97037.09;;;-2.30;100.00
32747;BME280;19118;50.860;13.662;2024-01-07T11:01:26;97036.84;;;-2.60;100.00
32747;BME280;19118;50.860;13.662;2024-01-07T11:06:46;97037.59;;;-2.36;100.00
32747;BME280;19118;50.860;13.662;2024-01-07T11:11:49;97041.19;;;-2.61;100.00
32747;BME280;19118;50.860;13.662;2024-01-07T11:16:50;97036.56;;;-2.80;100.00
32747;BME280;19118;50.860;13.662;2024-01-07T11:21:50;97029.47;;;-2.89;100.00
32747;BME280;19118;50.860;13.662;2024-01-07T11:26:50;97044.28;;;-2.91;100.00
32747;BME280;19118;50.860;13.662;2024-01-07T11:31:53;97053.25;;;-2.73;100.00
32747;BME280;19118;50.860;13.662;2024-01-07T11:36:53;97049.91;;;-2.97;100.00
32747;BME280;19118;50.860;13.662;2024-01-07T11:41:54;97049.91;;;-2.97;100.00
32747;BME280;19118;50.860;13.662;2024-01-07T11:46:55;97052.75;;;-2.89;100.00
32747;BME280;19118;50.860;13.662;2024-01-07T11:51:56;97056.41;;;-2.91;100.00
32747;BME280;19118;50.860;13.662;2024-01-07T11:56:56;97058.38;;;-2.95;100.00
32747;BME280;19118;50.860;13.662;2024-01-07T12:01:56;97067.16;;;-2.74;100.00
32747;BME280;19118;50.860;13.662;2024-01-07T12:06:57;97073.84;;;-2.82;100.00
32747;BME280;19118;50.860;13.662;2024-01-07T12:11:58;97073.09;;;-3.19;100.00
32747;BME280;19118;50.860;13.662;2024-01-07T12:17:01;97074.28;;;-2.88;100.00
32747;BME280;19118;50.860;13.662;2024-01-07T12:22:06;97074.69;;;-2.82;100.00
32747;BME280;19118;50.860;13.662;2024-01-07T12:27:06;97093.03;;;-2.74;100.00
32747;BME280;19118;50.860;13.662;2024-01-07T12:32:07;97090.88;;;-2.91;100.00
32747;BME280;19118;50.860;13.662;2024-01-07T12:37:13;97097.13;;;-2.82;100.00
32747;BME280;19118;50.860;13.662;2024-01-07T12:42:13;97096.41;;;-2.84;100.00
32747;BME280;19118;50.860;13.662;2024-01-07T12:47:14;97104.19;;;-3.08;100.00
32747;BME280;19118;50.860;13.662;2024-01-07T12:52:15;97112.19;;;-2.76;100.00
32747;BME280;19118;50.860;13.662;2024-01-07T12:57:15;97125.63;;;-2.95;100.00
32747;BME280;19118;50.860;13.662;2024-01-07T13:02:15;97123.88;;;-3.18;100.00
32747;BME280;19118;50.860;13.662;2024-01-07T13:07:16;97128.56;;;-3.00;100.00
32747;BME280;19118;50.860;13.662;2024-01-07T13:12:16;97131.09;;;-3.11;100.00
32747;BME280;19118;50.860;13.662;2024-01-07T13:17:16;97139.50;;;-2.96;100.00
32747;BME280;19118;50.860;13.662;2024-01-07T13:22:17;97134.97;;;-3.16;100.00
32747;BME280;19118;50.860;13.662;2024-01-07T13:27:17;97141.97;;;-2.95;100.00
32747;BME280;19118;50.860;13.662;2024-01-07T13:32:21;97151.66;;;-3.09;100.00
32747;BME280;19118;50.860;13.662;2024-01-07T13:37:21;97158.00;;;-3.13;100.00
32747;BME280;19118;50.860;13.662;2024-01-07T13:42:22;97163.34;;;-3.28;100.00
32747;BME280;19118;50.860;13.662;2024-01-07T13:47:22;97152.19;;;-3.04;100.00
32747;BME280;19118;50.860;13.662;2024-01-07T13:52:22;97162.94;;;-3.34;100.00
32747;BME280;19118;50.860;13.662;2024-01-07T13:57:23;97165.91;;;-3.28;100.00
32747;BME280;19118;50.860;13.662;2024-01-07T14:02:23;97167.38;;;-2.76;100.00
32747;BME280;19118;50.860;13.662;2024-01-07T14:07:24;97162.53;;;-2.80;100.00
32747;BME280;19118;50.860;13.662;2024-01-07T14:12:26;97165.88;;;-2.91;100.00
32747;BME280;19118;50.860;13.662;2024-01-07T14:17:26;97170.03;;;-3.25;100.00
32747;BME280;19118;50.860;13.662;2024-01-07T14:22:27;97175.19;;;-2.88;100.00
32747;BME280;19118;50.860;13.662;2024-01-07T14:27:27;97183.28;;;-3.30;100.00
32747;BME280;19118;50.860;13.662;2024-01-07T14:32:27;97182.03;;;-3.24;100.00
32747;BME280;19118;50.860;13.662;2024-01-07T14:37:28;97183.41;;;-3.07;100.00
32747;BME280;19118;50.860;13.662;2024-01-07T14:42:29;97191.16;;;-3.31;100.00
32747;BME280;19118;50.860;13.662;2024-01-07T14:47:29;97192.75;;;-3.17;100.00
32747;BME280;19118;50.860;13.662;2024-01-07T14:52:29;97186.53;;;-3.39;100.00
32747;BME280;19118;50.860;13.662;2024-01-07T14:57:30;97193.19;;;-3.24;100.00
32747;BME280;19118;50.860;13.662;2024-01-07T15:02:30;97190.72;;;-3.25;100.00
32747;BME280;19118;50.860;13.662;2024-01-07T15:07:31;97191.97;;;-3.31;100.00
32747;BME280;19118;50.860;13.662;2024-01-07T15:12:31;97199.22;;;-3.36;100.00
32747;BME280;19118;50.860;13.662;2024-01-07T15:17:35;97195.28;;;-3.41;100.00
32747;BME280;19118;50.860;13.662;2024-01-07T15:22:35;97206.28;;;-3.63;100.00
32747;BME280;19118;50.860;13.662;2024-01-07T15:27:36;97212.91;;;-3.46;100.00
32747;BME280;19118;50.860;13.662;2024-01-07T15:32:36;97218.03;;;-3.34;100.00
32747;BME280;19118;50.860;13.662;2024-01-07T15:37:37;97222.09;;;-3.42;100.00
32747;BME280;19118;50.860;13.662;2024-01-07T15:42:38;97218.78;;;-3.44;100.00
32747;BME280;19118;50.860;13.662;2024-01-07T15:47:38;97227.78;;;-3.50;100.00
32747;BME280;19118;50.860;13.662;2024-01-07T15:52:39;97225.09;;;-3.48;100.00
32747;BME280;19118;50.860;13.662;2024-01-07T15:57:44;97234.72;;;-3.38;100.00
32747;BME280;19118;50.860;13.662;2024-01-07T16:02:45;97239.97;;;-3.27;100.00
32747;BME280;19118;50.860;13.662;2024-01-07T16:07:48;97237.38;;;-3.27;100.00
32747;BME280;19118;50.860;13.662;2024-01-07T16:12:48;97251.34;;;-3.42;100.00
32747;BME280;19118;50.860;13.662;2024-01-07T16:17:49;97255.28;;;-3.49;100.00
32747;BME280;19118;50.860;13.662;2024-01-07T16:22:49;97267.69;;;-3.54;100.00
32747;BME280;19118;50.860;13.662;2024-01-07T16:27:49;97273.28;;;-3.60;100.00
32747;BME280;19118;50.860;13.662;2024-01-07T16:32:50;97280.09;;;-3.59;100.00
32747;BME280;19118;50.860;13.662;2024-01-07T16:37:50;97270.38;;;-3.43;100.00
32747;BME280;19118;50.860;13.662;2024-01-07T16:42:50;97272.56;;;-3.49;100.00
32747;BME280;19118;50.860;13.662;2024-01-07T16:47:51;97271.09;;;-3.28;100.00
32747;BME280;19118;50.860;13.662;2024-01-07T16:52:51;97276.56;;;-3.33;100.00
32747;BME280;19118;50.860;13.662;2024-01-07T16:57:53;97278.44;;;-3.35;100.00
32747;BME280;19118;50.860;13.662;2024-01-07T17:02:53;97276.16;;;-3.27;100.00
32747;BME280;19118;50.860;13.662;2024-01-07T17:07:54;97279.28;;;-3.47;100.00
32747;BME280;19118;50.860;13.662;2024-01-07T17:12:54;97282.34;;;-3.42;100.00
32747;BME280;19118;50.860;13.662;2024-01-07T17:17:54;97277.59;;;-3.23;100.00
32747;BME280;19118;50.860;13.662;2024-01-07T17:22:58;97280.94;;;-3.46;100.00
32747;BME280;19118;50.860;13.662;2024-01-07T17:27:58;97287.34;;;-3.39;100.00
32747;BME280;19118;50.860;13.662;2024-01-07T17:32:58;97302.09;;;-3.41;100.00
32747;BME280;19118;50.860;13.662;2024-01-07T17:38:00;97303.88;;;-3.41;100.00
32747;BME280;19118;50.860;13.662;2024-01-07T17:43:00;97303.75;;;-3.53;100.00
32747;BME280;19118;50.860;13.662;2024-01-07T17:48:02;97315.03;;;-3.54;100.00
32747;BME280;19118;50.860;13.662;2024-01-07T17:53:04;97302.22;;;-3.55;100.00
32747;BME280;19118;50.860;13.662;2024-01-07T17:58:07;97312.16;;;-3.49;100.00
32747;BME280;19118;50.860;13.662;2024-01-07T18:03:07;97328.06;;;-3.55;100.00
32747;BME280;19118;50.860;13.662;2024-01-07T18:08:08;97345.75;;;-3.49;100.00
32747;BME280;19118;50.860;13.662;2024-01-07T18:13:08;97329.53;;;-3.38;100.00
32747;BME280;19118;50.860;13.662;2024-01-07T18:18:14;97331.59;;;-3.31;100.00
32747;BME280;19118;50.860;13.662;2024-01-07T18:23:14;97338.22;;;-3.27;100.00
32747;BME280;19118;50.860;13.662;2024-01-07T18:28:15;97342.75;;;-3.56;100.00
32747;BME280;19118;50.860;13.662;2024-01-07T18:33:16;97334.47;;;-3.73;100.00
32747;BME280;19118;50.860;13.662;2024-01-07T18:38:16;97343.44;;;-3.66;100.00
32747;BME280;19118;50.860;13.662;2024-01-07T18:43:17;97346.44;;;-3.72;100.00
32747;BME280;19118;50.860;13.662;2024-01-07T18:48:17;97357.63;;;-3.72;100.00
32747;BME280;19118;50.860;13.662;2024-01-07T18:53:18;97355.16;;;-3.48;100.00
32747;BME280;19118;50.860;13.662;2024-01-07T18:58:18;97358.84;;;-3.65;100.00
32747;BME280;19118;50.860;13.662;2024-01-07T19:03:19;97361.16;;;-3.47;100.00
32747;BME280;19118;50.860;13.662;2024-01-07T19:08:19;97363.44;;;-3.43;100.00
32747;BME280;19118;50.860;13.662;2024-01-07T19:13:19;97372.44;;;-3.36;100.00
32747;BME280;19118;50.860;13.662;2024-01-07T19:18:20;97359.63;;;-3.37;100.00
32747;BME280;19118;50.860;13.662;2024-01-07T19:23:20;97363.44;;;-3.30;100.00
32747;BME280;19118;50.860;13.662;2024-01-07T19:28:21;97360.56;;;-3.38;100.00
32747;BME280;19118;50.860;13.662;2024-01-07T19:33:21;97361.06;;;-3.33;100.00
32747;BME280;19118;50.860;13.662;2024-01-07T19:38:21;97369.84;;;-3.36;100.00
32747;BME280;19118;50.860;13.662;2024-01-07T19:43:22;97371.06;;;-3.41;100.00
32747;BME280;19118;50.860;13.662;2024-01-07T19:48:22;97370.91;;;-3.26;100.00
32747;BME280;19118;50.860;13.662;2024-01-07T19:53:22;97380.09;;;-3.09;100.00
32747;BME280;19118;50.860;13.662;2024-01-07T19:58:23;97383.50;;;-3.34;100.00
32747;BME280;19118;50.860;13.662;2024-01-07T20:03:23;97372.66;;;-3.39;100.00
32747;BME280;19118;50.860;13.662;2024-01-07T20:08:25;97376.47;;;-3.32;100.00
32747;BME280;19118;50.860;13.662;2024-01-07T20:13:25;97380.59;;;-3.29;100.00
32747;BME280;19118;50.860;13.662;2024-01-07T20:18:26;97391.38;;;-3.23;100.00
32747;BME280;19118;50.860;13.662;2024-01-07T20:23:27;97394.25;;;-3.40;100.00
32747;BME280;19118;50.860;13.662;2024-01-07T20:28:27;97388.78;;;-3.10;100.00
32747;BME280;19118;50.860;13.662;2024-01-07T20:33:28;97394.91;;;-3.24;100.00
32747;BME280;19118;50.860;13.662;2024-01-07T20:38:28;97395.00;;;-3.38;100.00
32747;BME280;19118;50.860;13.662;2024-01-07T20:43:28;97387.84;;;-3.34;100.00
32747;BME280;19118;50.860;13.662;2024-01-07T20:48:28;97391.59;;;-3.26;100.00
32747;BME280;19118;50.860;13.662;2024-01-07T20:53:30;97392.59;;;-3.41;100.00
32747;BME280;19118;50.860;13.662;2024-01-07T20:58:31;97394.25;;;-3.40;100.00
32747;BME280;19118;50.860;13.662;2024-01-07T21:03:31;97395.16;;;-3.54;100.00
32747;BME280;19118;50.860;13.662;2024-01-07T21:08:32;97402.09;;;-3.54;100.00
32747;BME280;19118;50.860;13.662;2024-01-07T21:13:33;97413.00;;;-3.63;100.00
32747;BME280;19118;50.860;13.662;2024-01-07T21:18:34;97404.50;;;-3.78;100.00
32747;BME280;19118;50.860;13.662;2024-01-07T21:23:35;97409.06;;;-3.82;100.00
32747;BME280;19118;50.860;13.662;2024-01-07T21:28:35;97404.75;;;-3.68;100.00
32747;BME280;19118;50.860;13.662;2024-01-07T21:33:35;97408.59;;;-3.61;100.00
32747;BME280;19118;50.860;13.662;2024-01-07T21:38:38;97406.13;;;-3.90;100.00
32747;BME280;19118;50.860;13.662;2024-01-07T21:43:39;97410.28;;;-3.74;100.00
32747;BME280;19118;50.860;13.662;2024-01-07T21:48:40;97417.31;;;-3.76;100.00
32747;BME280;19118;50.860;13.662;2024-01-07T21:53:41;97426.25;;;-3.95;100.00
32747;BME280;19118;50.860;13.662;2024-01-07T21:58:41;97435.09;;;-3.85;100.00
32747;BME280;19118;50.860;13.662;2024-01-07T22:03:41;97431.94;;;-3.90;100.00
32747;BME280;19118;50.860;13.662;2024-01-07T22:08:42;97435.72;;;-3.81;100.00
32747;BME280;19118;50.860;13.662;2024-01-07T22:13:43;97446.16;;;-3.97;100.00
32747;BME280;19118;50.860;13.662;2024-01-07T22:18:44;97441.19;;;-4.00;100.00
32747;BME280;19118;50.860;13.662;2024-01-07T22:23:44;97449.09;;;-3.89;100.00
32747;BME280;19118;50.860;13.662;2024-01-07T22:28:47;97449.88;;;-4.01;100.00
32747;BME280;19118;50.860;13.662;2024-01-07T22:33:47;97447.59;;;-4.20;100.00
32747;BME280;19118;50.860;13.662;2024-01-07T22:38:47;97446.50;;;-4.16;100.00
32747;BME280;19118;50.860;13.662;2024-01-07T22:43:48;97453.78;;;-4.22;100.00
32747;BME280;19118;50.860;13.662;2024-01-07T22:48:48;97454.13;;;-4.41;100.00
32747;BME280;19118;50.860;13.662;2024-01-07T22:53:48;97460.19;;;-4.42;100.00
32747;BME280;19118;50.860;13.662;2024-01-07T22:58:49;97471.72;;;-4.48;100.00
32747;BME280;19118;50.860;13.662;2024-01-07T23:03:49;97473.56;;;-4.50;100.00
32747;BME280;19118;50.860;13.662;2024-01-07T23:08:51;97473.34;;;-4.32;100.00
32747;BME280;19118;50.860;13.662;2024-01-07T23:13:51;97481.00;;;-4.31;100.00
32747;BME280;19118;50.860;13.662;2024-01-07T23:18:51;97471.69;;;-4.33;100.00
32747;BME280;19118;50.860;13.662;2024-01-07T23:23:52;97470.00;;;-4.20;100.00
32747;BME280;19118;50.860;13.662;2024-01-07T23:28:52;97474.25;;;-4.05;100.00
32747;BME280;19118;50.860;13.662;2024-01-07T23:33:52;97474.06;;;-4.02;100.00
32747;BME280;19118;50.860;13.662;2024-01-07T23:38:53;97477.84;;;-4.22;100.00
32747;BME280;19118;50.860;13.662;2024-01-07T23:43:53;97477.41;;;-4.43;100.00
32747;BME280;19118;50.860;13.662;2024-01-07T23:48:53;97486.06;;;-4.44;100.00
32747;BME280;19118;50.860;13.662;2024-01-07T23:53:54;97485.50;;;-4.20;100.00
32747;BME280;19118;50.860;13.662;2024-01-07T23:58:55;97489.09;;;-4.08;100.00
